Aviation Digital Data Service (ADDS)

Output produced by METARs form (0647 UTC 24 July 2016)
found at http://www.aviationweather.gov/adds/metars/
 
KATL 240532Z 2406/2512 00000KT P6SM SCT050 BKN250 
     FM240800 23002KT P6SM BKN250 
     FM241500 24005KT P6SM SCT035 
     FM241800 22007KT P6SM VCSH SCT050 
     PROB30 2418/2424 4SM TSRA BKN040CB 
     FM250200 24003KT P6SM SCT250